Time;durP1;ratioP1;P1;durP2;ratioP2;P2;SDS_P1;SDS_P2;PMS_P1;PMS_P2;Temp;Humidity;BMP_temperature;BMP_pressure;BME280_temperature;BME280_humidity;BME280_pressure;Samples;Min_cycle;Max_cycle;Signal;HPM_P1;HPM_P2
2022/03/12 00:01:36;;;;;;;14.98;9.95;;;;;;;;;;143741;595;46019;-67
2022/03/12 00:04:04;;;;;;;13.88;10.00;;;;;;;;;;143740;578;46023;-69
2022/03/12 00:06:31;;;;;;;13.50;9.27;;;;;;;;;;143741;575;46010;-67
2022/03/12 00:08:58;;;;;;;13.60;9.88;;;;;;;;;;143744;669;45020;-69
2022/03/12 00:11:34;;;;;;;16.48;10.35;;;;;;;;;;143740;571;47018;-67
2022/03/12 00:14:03;;;;;;;14.27;9.30;;;;;;;;;;143739;604;46022;-67
2022/03/12 00:16:31;;;;;;;21.48;12.77;;;;;;;;;;143741;648;46019;-68
2022/03/12 00:19:02;;;;;;;18.48;10.45;;;;;;;;;;143744;587;45023;-68
2022/03/12 00:21:34;;;;;;;17.00;12.20;;;;;;;;;;143741;623;46012;-67
2022/03/12 00:24:01;;;;;;;15.55;11.23;;;;;;;;;;143740;656;46022;-67
2022/03/12 00:26:29;;;;;;;18.62;12.90;;;;;;;;;;143742;564;45912;-69
2022/03/12 00:28:56;;;;;;;15.80;10.13;;;;;;;;;;143742;569;46022;-68
2022/03/12 00:31:25;;;;;;;17.92;11.68;;;;;;;;;;143739;596;47020;-69
2022/03/12 00:33:52;;;;;;;18.33;11.23;;;;;;;;;;143740;571;46922;-69
2022/03/12 00:36:20;;;;;;;18.60;11.32;;;;;;;;;;143742;569;46010;-69
2022/03/12 00:38:47;;;;;;;14.52;11.52;;;;;;;;;;143745;683;46022;-67
2022/03/12 00:41:16;;;;;;;16.02;10.73;;;;;;;;;;143741;564;46018;-68
2022/03/12 00:43:43;;;;;;;16.45;10.50;;;;;;;;;;143738;591;46921;-67
2022/03/12 00:46:09;;;;;;;22.30;14.10;;;;;;;;;;143742;575;46010;-69
2022/03/12 00:48:38;;;;;;;17.50;12.43;;;;;;;;;;143743;576;46023;-67
2022/03/12 00:51:06;;;;;;;22.80;14.38;;;;;;;;;;143741;581;46018;-68
2022/03/12 00:53:33;;;;;;;22.50;13.40;;;;;;;;;;143738;607;46921;-69
2022/03/12 00:56:00;;;;;;;21.80;14.98;;;;;;;;;;143741;585;46010;-67
2022/03/12 00:58:27;;;;;;;21.65;14.27;;;;;;;;;;143742;668;46022;-68
2022/03/12 01:00:54;;;;;;;26.35;17.08;;;;;;;;;;143742;582;46019;-68
2022/03/12 01:03:21;;;;;;;19.87;13.90;;;;;;;;;;143740;565;46023;-69
2022/03/12 01:05:58;;;;;;;20.40;13.57;;;;;;;;;;143741;570;46018;-68
2022/03/12 01:08:27;;;;;;;16.83;12.90;;;;;;;;;;143743;583;46022;-68
2022/03/12 01:10:58;;;;;;;20.98;13.93;;;;;;;;;;143741;631;46019;-69
2022/03/12 01:13:26;;;;;;;21.80;13.40;;;;;;;;;;143740;564;46921;-67
2022/03/12 01:15:53;;;;;;;19.40;12.98;;;;;;;;;;143741;720;45912;-68
2022/03/12 01:18:22;;;;;;;20.00;13.18;;;;;;;;;;143743;591;45023;-68
2022/03/12 01:20:50;;;;;;;16.45;12.02;;;;;;;;;;143741;577;46018;-69
2022/03/12 01:23:21;;;;;;;16.60;11.77;;;;;;;;;;143740;578;46022;-68
2022/03/12 01:25:48;;;;;;;16.45;11.95;;;;;;;;;;143741;564;46009;-67
2022/03/12 01:28:17;;;;;;;15.88;11.15;;;;;;;;;;143742;592;46022;-68
2022/03/12 01:30:44;;;;;;;20.33;12.98;;;;;;;;;;143740;565;46018;-69
2022/03/12 01:33:13;;;;;;;18.30;11.43;;;;;;;;;;143739;657;46922;-69
2022/03/12 01:35:40;;;;;;;20.45;12.82;;;;;;;;;;143741;586;46010;-68
2022/03/12 01:38:08;;;;;;;24.95;12.00;;;;;;;;;;143744;661;45027;-69
2022/03/12 01:40:36;;;;;;;18.50;12.35;;;;;;;;;;143741;581;46019;-69
2022/03/12 01:43:04;;;;;;;18.12;11.43;;;;;;;;;;143739;744;46922;-69
2022/03/12 01:45:34;;;;;;;19.20;13.30;;;;;;;;;;143743;585;46010;-68
2022/03/12 01:48:03;;;;;;;19.02;12.73;;;;;;;;;;143742;586;46023;-68
2022/03/12 01:50:33;;;;;;;17.70;10.73;;;;;;;;;;143742;595;46018;-68
2022/03/12 01:53:05;;;;;;;16.37;11.80;;;;;;;;;;143739;577;46028;-68
2022/03/12 01:55:32;;;;;;;17.05;11.90;;;;;;;;;;143738;564;46019;-68
2022/03/12 01:58:03;;;;;;;15.07;10.85;;;;;;;;;;143742;598;45022;-67
2022/03/12 02:00:41;;;;;;;16.83;11.18;;;;;;;;;;143741;564;46018;-69
2022/03/12 02:03:09;;;;;;;20.25;12.18;;;;;;;;;;143740;594;46922;-68
2022/03/12 02:05:37;;;;;;;16.80;10.88;;;;;;;;;;143742;711;46010;-69
2022/03/12 02:08:05;;;;;;;17.52;11.48;;;;;;;;;;143742;591;46022;-68
2022/03/12 02:10:32;;;;;;;15.30;10.45;;;;;;;;;;143741;581;46019;-68
2022/03/12 02:12:59;;;;;;;15.50;10.32;;;;;;;;;;143742;564;46010;-68
2022/03/12 02:15:26;;;;;;;16.05;10.02;;;;;;;;;;143741;640;46010;-68
2022/03/12 02:17:52;;;;;;;15.55;10.52;;;;;;;;;;143743;614;45023;-68
2022/03/12 02:20:21;;;;;;;15.00;10.43;;;;;;;;;;143742;613;46018;-68
2022/03/12 02:22:55;;;;;;;16.45;10.10;;;;;;;;;;143739;565;46022;-68
2022/03/12 02:25:27;;;;;;;14.93;10.13;;;;;;;;;;143741;581;45912;-68
2022/03/12 02:27:55;;;;;;;14.13;9.98;;;;;;;;;;143742;601;46022;-68
2022/03/12 02:30:34;;;;;;;14.55;10.27;;;;;;;;;;143740;576;46018;-68
2022/03/12 02:33:05;;;;;;;17.05;10.85;;;;;;;;;;143737;577;46923;-69
2022/03/12 02:35:36;;;;;;;15.65;10.63;;;;;;;;;;143741;615;46010;-68
2022/03/12 02:38:04;;;;;;;15.85;10.80;;;;;;;;;;143744;579;46022;-68
2022/03/12 02:40:32;;;;;;;13.32;9.35;;;;;;;;;;143742;586;46018;-68
2022/03/12 02:43:00;;;;;;;14.23;9.90;;;;;;;;;;143740;642;46022;-67
2022/03/12 02:45:29;;;;;;;14.52;10.23;;;;;;;;;;143740;572;46018;-68
2022/03/12 02:47:57;;;;;;;12.75;9.38;;;;;;;;;;143742;569;46023;-69
2022/03/12 02:50:25;;;;;;;15.77;9.30;;;;;;;;;;143741;602;46018;-68
2022/03/12 02:52:52;;;;;;;16.23;10.88;;;;;;;;;;143740;587;46022;-68
2022/03/12 02:55:24;;;;;;;15.95;9.93;;;;;;;;;;143736;712;46010;-69
2022/03/12 02:57:52;;;;;;;17.23;10.23;;;;;;;;;;143742;570;45022;-69
2022/03/12 03:00:20;;;;;;;16.45;10.32;;;;;;;;;;143742;582;46018;-68
2022/03/12 03:02:53;;;;;;;19.55;10.52;;;;;;;;;;143740;595;46023;-70
2022/03/12 03:08:19;;;;;;;34.55;13.50;;;;;;;;;;143742;608;46022;-68
2022/03/12 03:10:49;;;;;;;15.63;10.05;;;;;;;;;;143742;607;46018;-68
2022/03/12 03:13:36;;;;;;;20.42;12.18;;;;;;;;;;143739;603;46022;-69
2022/03/12 03:16:22;;;;;;;18.67;11.60;;;;;;;;;;143741;617;46010;-68
2022/03/12 03:18:52;;;;;;;27.02;11.77;;;;;;;;;;143743;621;45023;-68
2022/03/12 03:21:22;;;;;;;20.40;11.35;;;;;;;;;;143738;592;46018;-68
2022/03/12 03:23:49;;;;;;;17.42;10.32;;;;;;;;;;143739;605;46011;-68
2022/03/12 03:26:55;;;;;;;17.20;10.90;;;;;;;;;;143742;580;46010;-69
2022/03/12 03:29:24;;;;;;;23.77;10.73;;;;;;;;;;143744;608;46024;-68
2022/03/12 03:31:51;;;;;;;16.90;10.05;;;;;;;;;;143742;569;46020;-68
2022/03/12 03:34:20;;;;;;;12.73;8.63;;;;;;;;;;143738;581;46923;-68
2022/03/12 03:36:47;;;;;;;16.62;9.57;;;;;;;;;;143743;765;46010;-67
2022/03/12 03:39:15;;;;;;;14.25;8.70;;;;;;;;;;143743;660;46022;-68
2022/03/12 03:41:43;;;;;;;22.55;9.60;;;;;;;;;;143741;573;46020;-68
2022/03/12 03:44:11;;;;;;;15.95;9.13;;;;;;;;;;143741;587;46010;-68
2022/03/12 03:46:38;;;;;;;14.70;9.57;;;;;;;;;;143741;664;46018;-68
2022/03/12 03:49:05;;;;;;;13.15;8.77;;;;;;;;;;143747;570;45022;-68
2022/03/12 03:51:37;;;;;;;14.70;8.93;;;;;;;;;;143741;707;46020;-68
2022/03/12 03:54:08;;;;;;;12.73;8.85;;;;;;;;;;143738;574;46924;-68
2022/03/12 03:56:36;;;;;;;12.98;9.40;;;;;;;;;;143741;585;46010;-67
2022/03/12 03:59:03;;;;;;;11.85;8.68;;;;;;;;;;143741;569;46022;-68
2022/03/12 04:01:30;;;;;;;13.07;9.35;;;;;;;;;;143742;610;46019;-67
2022/03/12 04:03:57;;;;;;;13.27;9.15;;;;;;;;;;143739;608;46924;-68
2022/03/12 04:06:27;;;;;;;14.50;9.20;;;;;;;;;;143742;599;46010;-68
2022/03/12 04:08:54;;;;;;;13.90;8.63;;;;;;;;;;143740;666;46023;-68
2022/03/12 04:11:23;;;;;;;14.82;8.65;;;;;;;;;;143743;579;46018;-67
2022/03/12 04:13:52;;;;;;;11.12;8.00;;;;;;;;;;143740;589;46022;-68
2022/03/12 04:16:20;;;;;;;11.63;8.57;;;;;;;;;;143742;573;46011;-67
2022/03/12 04:18:48;;;;;;;12.50;9.05;;;;;;;;;;143743;577;46022;-68
2022/03/12 04:21:17;;;;;;;13.30;8.70;;;;;;;;;;143740;604;46020;-69
2022/03/12 04:23:46;;;;;;;12.77;8.90;;;;;;;;;;143740;581;46923;-67
2022/03/12 04:26:14;;;;;;;14.05;8.57;;;;;;;;;;143742;644;46010;-68
2022/03/12 04:28:41;;;;;;;12.18;8.40;;;;;;;;;;143744;704;46010;-67
2022/03/12 04:31:08;;;;;;;12.75;8.45;;;;;;;;;;143743;603;46019;-67
2022/03/12 04:33:38;;;;;;;12.90;7.95;;;;;;;;;;143741;571;46022;-69
2022/03/12 04:36:05;;;;;;;13.55;8.63;;;;;;;;;;143742;683;46010;-67
2022/03/12 04:38:32;;;;;;;14.27;9.18;;;;;;;;;;143745;704;45023;-67
2022/03/12 04:41:00;;;;;;;11.48;8.30;;;;;;;;;;143744;577;46018;-67
2022/03/12 04:43:30;;;;;;;13.95;8.48;;;;;;;;;;143740;591;46922;-68
2022/03/12 04:45:58;;;;;;;12.00;9.02;;;;;;;;;;143742;582;46011;-68
2022/03/12 04:48:26;;;;;;;18.05;9.02;;;;;;;;;;143745;717;45022;-68
2022/03/12 04:50:54;;;;;;;14.90;9.55;;;;;;;;;;143743;588;46018;-68
2022/03/12 04:53:22;;;;;;;13.02;9.07;;;;;;;;;;143740;617;46023;-68
2022/03/12 04:55:49;;;;;;;15.07;9.57;;;;;;;;;;143743;609;45912;-67
2022/03/12 04:58:16;;;;;;;14.35;8.35;;;;;;;;;;143743;764;46022;-68
2022/03/12 05:00:45;;;;;;;14.38;9.23;;;;;;;;;;143743;635;46019;-67
2022/03/12 05:03:20;;;;;;;13.10;9.18;;;;;;;;;;143740;588;46022;-68
2022/03/12 05:05:53;;;;;;;12.48;9.30;;;;;;;;;;143744;654;45912;-67
2022/03/12 05:08:26;;;;;;;12.98;8.55;;;;;;;;;;143745;583;46010;-67
2022/03/12 05:10:55;;;;;;;13.88;9.15;;;;;;;;;;143744;581;46018;-67
2022/03/12 05:13:24;;;;;;;14.05;9.52;;;;;;;;;;143740;599;46922;-67
2022/03/12 05:15:53;;;;;;;12.80;9.35;;;;;;;;;;143743;583;45913;-69
2022/03/12 05:18:21;;;;;;;16.12;9.70;;;;;;;;;;143746;578;46022;-67
2022/03/12 05:20:48;;;;;;;15.90;9.82;;;;;;;;;;143741;598;46018;-67
2022/03/12 05:23:17;;;;;;;14.43;9.95;;;;;;;;;;143741;597;46023;-68
2022/03/12 05:25:45;;;;;;;14.27;10.45;;;;;;;;;;143743;674;46010;-67
2022/03/12 05:28:15;;;;;;;15.55;9.40;;;;;;;;;;143746;585;45020;-67
2022/03/12 05:30:46;;;;;;;12.93;9.30;;;;;;;;;;143743;690;46019;-68
2022/03/12 05:33:18;;;;;;;13.15;9.00;;;;;;;;;;143742;672;46022;-68
2022/03/12 05:35:46;;;;;;;17.37;9.57;;;;;;;;;;143743;573;45913;-67
2022/03/12 05:38:14;;;;;;;13.18;9.40;;;;;;;;;;143744;665;46022;-67
2022/03/12 05:40:42;;;;;;;13.50;9.50;;;;;;;;;;143743;592;46018;-67
2022/03/12 05:43:15;;;;;;;14.27;9.70;;;;;;;;;;143741;596;46022;-67
2022/03/12 05:45:45;;;;;;;16.17;9.48;;;;;;;;;;143743;612;46010;-67
2022/03/12 05:48:14;;;;;;;13.25;9.40;;;;;;;;;;143745;606;45029;-67
2022/03/12 05:50:43;;;;;;;13.10;9.35;;;;;;;;;;143742;571;46018;-68
2022/03/12 05:53:10;;;;;;;14.18;9.18;;;;;;;;;;143740;585;46923;-67
2022/03/12 05:55:41;;;;;;;12.65;9.75;;;;;;;;;;143743;628;46010;-67
2022/03/12 05:58:11;;;;;;;16.52;9.60;;;;;;;;;;143745;569;46022;-68
2022/03/12 06:00:39;;;;;;;12.13;8.60;;;;;;;;;;143743;582;46039;-68
2022/03/12 06:03:06;;;;;;;12.00;8.85;;;;;;;;;;143741;598;46923;-68
2022/03/12 06:05:40;;;;;;;13.32;9.32;;;;;;;;;;143743;593;46010;-67
2022/03/12 06:08:08;;;;;;;14.87;8.85;;;;;;;;;;143744;589;46023;-67
2022/03/12 06:10:35;;;;;;;14.90;9.48;;;;;;;;;;143743;564;46021;-67
2022/03/12 06:13:06;;;;;;;14.15;9.25;;;;;;;;;;143740;591;46922;-67
2022/03/12 06:15:38;;;;;;;14.00;9.57;;;;;;;;;;143743;571;46019;-66
2022/03/12 06:18:05;;;;;;;14.73;9.32;;;;;;;;;;143744;571;46023;-68
2022/03/12 06:20:35;;;;;;;15.90;9.85;;;;;;;;;;143742;585;46020;-69
2022/03/12 06:23:02;;;;;;;15.70;9.75;;;;;;;;;;143743;574;46023;-67
2022/03/12 06:25:30;;;;;;;15.57;9.30;;;;;;;;;;143742;603;46018;-67
2022/03/12 06:27:57;;;;;;;14.50;9.50;;;;;;;;;;143746;593;45022;-68
2022/03/12 06:30:26;;;;;;;14.70;9.30;;;;;;;;;;143741;593;46020;-69
2022/03/12 06:32:55;;;;;;;13.88;9.35;;;;;;;;;;143740;668;46923;-68
2022/03/12 06:35:22;;;;;;;14.48;9.65;;;;;;;;;;143743;577;46010;-68
2022/03/12 06:37:49;;;;;;;16.05;10.02;;;;;;;;;;143746;590;46022;-68
2022/03/12 06:40:17;;;;;;;14.80;8.55;;;;;;;;;;143743;584;46018;-66
2022/03/12 06:42:45;;;;;;;14.52;9.82;;;;;;;;;;143741;680;46022;-67
2022/03/12 06:45:16;;;;;;;18.58;10.02;;;;;;;;;;143742;607;46018;-68
2022/03/12 06:47:46;;;;;;;14.43;9.50;;;;;;;;;;143746;602;45022;-66
2022/03/12 06:50:17;;;;;;;15.10;10.85;;;;;;;;;;143744;572;46020;-68
2022/03/12 06:52:48;;;;;;;18.12;9.25;;;;;;;;;;143740;652;46921;-67
2022/03/12 06:55:18;;;;;;;16.12;10.23;;;;;;;;;;143744;599;45912;-67
2022/03/12 06:57:45;;;;;;;14.43;9.63;;;;;;;;;;143746;588;45022;-66
2022/03/12 07:00:15;;;;;;;14.68;9.52;;;;;;;;;;143743;721;46021;-68
2022/03/12 07:02:42;;;;;;;13.68;10.10;;;;;;;;;;143741;575;46022;-68
2022/03/12 07:05:11;;;;;;;13.20;9.52;;;;;;;;;;143744;571;45911;-67
2022/03/12 07:07:39;;;;;;;17.20;9.88;;;;;;;;;;143746;575;46023;-68
2022/03/12 07:10:07;;;;;;;14.07;9.85;;;;;;;;;;143744;583;46018;-67
2022/03/12 07:12:34;;;;;;;16.10;10.10;;;;;;;;;;143739;589;47923;-66
2022/03/12 07:15:01;;;;;;;14.30;10.07;;;;;;;;;;143742;642;46019;-66
2022/03/12 07:17:29;;;;;;;14.85;9.43;;;;;;;;;;143744;701;46022;-67
2022/03/12 07:19:56;;;;;;;15.52;10.23;;;;;;;;;;143742;576;46018;-66
2022/03/12 07:22:23;;;;;;;14.55;10.32;;;;;;;;;;143742;583;46023;-68
2022/03/12 07:24:50;;;;;;;11.52;8.68;;;;;;;;;;143744;644;46010;-66
2022/03/12 07:27:17;;;;;;;13.90;9.25;;;;;;;;;;143746;577;45022;-67
2022/03/12 07:29:44;;;;;;;15.68;10.07;;;;;;;;;;143743;632;46019;-67
2022/03/12 07:32:11;;;;;;;12.02;8.80;;;;;;;;;;143743;628;46010;-66
2022/03/12 07:34:38;;;;;;;17.02;10.13;;;;;;;;;;143742;637;45913;-67
2022/03/12 07:37:08;;;;;;;17.27;9.85;;;;;;;;;;143746;628;45023;-68
2022/03/12 07:39:36;;;;;;;14.82;9.80;;;;;;;;;;143743;642;46010;-66
2022/03/12 07:42:03;;;;;;;13.75;10.35;;;;;;;;;;143742;653;46022;-68
2022/03/12 07:44:31;;;;;;;13.32;9.43;;;;;;;;;;143743;589;46019;-69
2022/03/12 07:46:58;;;;;;;14.13;9.45;;;;;;;;;;143745;571;46022;-67
2022/03/12 07:49:25;;;;;;;16.83;10.13;;;;;;;;;;143744;563;46018;-66
2022/03/12 07:51:53;;;;;;;16.95;9.85;;;;;;;;;;143740;566;46922;-69
2022/03/12 07:54:20;;;;;;;14.05;9.50;;;;;;;;;;143743;581;46018;-67
2022/03/12 07:56:47;;;;;;;15.15;10.57;;;;;;;;;;143744;584;46022;-69
2022/03/12 07:59:14;;;;;;;15.70;10.40;;;;;;;;;;143744;587;46019;-67
2022/03/12 08:01:41;;;;;;;13.75;10.05;;;;;;;;;;143741;564;46921;-67
2022/03/12 08:04:08;;;;;;;14.15;9.98;;;;;;;;;;143743;630;46010;-67
2022/03/12 08:06:35;;;;;;;13.13;9.48;;;;;;;;;;143745;572;46023;-67
2022/03/12 08:09:02;;;;;;;16.30;10.38;;;;;;;;;;143744;697;46018;-67
2022/03/12 08:11:29;;;;;;;14.65;10.10;;;;;;;;;;143742;581;46921;-67
2022/03/12 08:14:06;;;;;;;13.62;9.75;;;;;;;;;;143744;611;46010;-66
2022/03/12 08:16:34;;;;;;;14.57;9.68;;;;;;;;;;143744;572;46010;-67
2022/03/12 08:19:07;;;;;;;16.52;9.98;;;;;;;;;;143744;579;46018;-67
2022/03/12 08:21:35;;;;;;;16.23;10.10;;;;;;;;;;143739;569;46923;-67
2022/03/12 08:24:03;;;;;;;15.23;9.55;;;;;;;;;;143744;662;46010;-67
2022/03/12 08:26:31;;;;;;;15.77;9.77;;;;;;;;;;143746;612;45022;-69
2022/03/12 08:28:58;;;;;;;14.95;9.90;;;;;;;;;;143744;571;46018;-67
2022/03/12 08:31:25;;;;;;;13.77;9.90;;;;;;;;;;143742;606;46022;-67
2022/03/12 08:33:51;;;;;;;14.32;10.00;;;;;;;;;;143743;576;46010;-67
2022/03/12 08:36:18;;;;;;;14.60;9.25;;;;;;;;;;143743;585;46023;-67
2022/03/12 08:38:45;;;;;;;14.55;9.05;;;;;;;;;;143742;591;46020;-68
2022/03/12 08:41:12;;;;;;;16.48;10.07;;;;;;;;;;143741;697;46923;-67
2022/03/12 08:43:39;;;;;;;18.80;9.38;;;;;;;;;;143744;657;46011;-67
2022/03/12 08:46:08;;;;;;;12.82;9.77;;;;;;;;;;143745;586;46022;-69
2022/03/12 08:48:35;;;;;;;14.82;9.60;;;;;;;;;;143744;582;46018;-68
2022/03/12 08:51:03;;;;;;;14.07;9.30;;;;;;;;;;143744;575;46023;-68
2022/03/12 08:53:31;;;;;;;14.98;9.32;;;;;;;;;;143743;579;46010;-68
2022/03/12 08:56:00;;;;;;;11.02;8.38;;;;;;;;;;143745;586;45022;-67
2022/03/12 08:58:29;;;;;;;15.23;9.65;;;;;;;;;;143742;599;46020;-68
2022/03/12 09:00:58;;;;;;;13.02;9.25;;;;;;;;;;143741;583;46923;-68
2022/03/12 09:03:25;;;;;;;13.43;9.70;;;;;;;;;;143743;566;46010;-68
2022/03/12 09:05:54;;;;;;;14.65;9.73;;;;;;;;;;143744;589;46022;-68
2022/03/12 09:08:21;;;;;;;13.43;9.20;;;;;;;;;;143742;576;46018;-69
2022/03/12 09:10:48;;;;;;;12.95;8.80;;;;;;;;;;143742;565;46922;-70
2022/03/12 09:13:17;;;;;;;13.45;8.77;;;;;;;;;;143743;575;45913;-69
2022/03/12 09:15:44;;;;;;;14.48;8.75;;;;;;;;;;143745;587;45023;-68
2022/03/12 09:18:12;;;;;;;11.77;8.55;;;;;;;;;;143745;571;46010;-68
2022/03/12 09:20:44;;;;;;;14.40;8.77;;;;;;;;;;143742;573;46023;-69
2022/03/12 09:23:12;;;;;;;13.88;9.00;;;;;;;;;;143743;603;45912;-67
2022/03/12 09:25:39;;;;;;;13.93;8.57;;;;;;;;;;143745;563;46022;-68
2022/03/12 09:28:06;;;;;;;13.38;8.27;;;;;;;;;;143742;578;46019;-70
2022/03/12 09:30:34;;;;;;;11.57;8.13;;;;;;;;;;143743;569;46022;-68
2022/03/12 09:33:01;;;;;;;15.70;10.63;;;;;;;;;;143744;589;45913;-69
2022/03/12 09:35:30;;;;;;;14.68;9.50;;;;;;;;;;143747;566;45023;-69
2022/03/12 09:37:58;;;;;;;11.52;8.05;;;;;;;;;;143744;639;46018;-70
2022/03/12 09:40:27;;;;;;;13.20;8.45;;;;;;;;;;143742;603;46923;-68
2022/03/12 09:42:56;;;;;;;12.95;7.90;;;;;;;;;;143743;594;45913;-69
2022/03/12 09:45:24;;;;;;;13.70;9.43;;;;;;;;;;143743;575;45022;-69
2022/03/12 09:47:51;;;;;;;13.62;8.52;;;;;;;;;;143743;578;46018;-67
2022/03/12 09:50:19;;;;;;;12.93;8.32;;;;;;;;;;143738;593;46923;-69
2022/03/12 09:52:46;;;;;;;9.43;7.60;;;;;;;;;;143741;615;46010;-67
2022/03/12 09:55:13;;;;;;;10.52;7.53;;;;;;;;;;143744;569;46022;-69
2022/03/12 09:57:40;;;;;;;12.00;7.85;;;;;;;;;;143741;575;46019;-68
2022/03/12 10:00:08;;;;;;;10.38;7.80;;;;;;;;;;143742;590;46022;-67
2022/03/12 10:02:35;;;;;;;11.57;7.47;;;;;;;;;;143742;593;47016;-67
2022/03/12 10:05:02;;;;;;;12.63;7.75;;;;;;;;;;143744;617;45023;-66
2022/03/12 10:07:29;;;;;;;12.20;8.40;;;;;;;;;;143742;570;46018;-69
2022/03/12 10:09:56;;;;;;;12.02;7.97;;;;;;;;;;143738;620;46922;-68
2022/03/12 10:12:23;;;;;;;10.45;7.35;;;;;;;;;;143741;595;45913;-68
2022/03/12 10:14:50;;;;;;;9.82;7.37;;;;;;;;;;143743;565;46023;-68
2022/03/12 10:17:18;;;;;;;11.57;7.93;;;;;;;;;;143742;578;46018;-67
2022/03/12 10:19:46;;;;;;;16.02;7.78;;;;;;;;;;143738;606;46923;-68
2022/03/12 10:22:14;;;;;;;12.50;8.25;;;;;;;;;;143741;660;45913;-68
2022/03/12 10:24:42;;;;;;;11.57;8.15;;;;;;;;;;143744;570;46010;-68
2022/03/12 10:27:09;;;;;;;13.32;8.52;;;;;;;;;;143740;579;46019;-68
2022/03/12 10:29:38;;;;;;;12.15;8.00;;;;;;;;;;143738;599;46924;-68
2022/03/12 10:32:28;;;;;;;10.27;7.50;;;;;;;;;;143741;587;46010;-67
2022/03/12 10:34:57;;;;;;;11.60;7.70;;;;;;;;;;143745;620;46022;-67
2022/03/12 10:37:25;;;;;;;10.95;7.22;;;;;;;;;;143742;594;46018;-67
2022/03/12 10:40:18;;;;;;;10.32;7.43;;;;;;;;;;143741;574;46022;-67
2022/03/12 10:43:00;;;;;;;16.05;8.13;;;;;;;;;;143740;653;46019;-67
2022/03/12 10:45:30;;;;;;;12.23;7.72;;;;;;;;;;143742;585;46022;-67
2022/03/12 10:47:59;;;;;;;11.50;7.65;;;;;;;;;;143744;599;45020;-69
2022/03/12 10:50:38;;;;;;;12.25;7.28;;;;;;;;;;143741;573;46010;-68
2022/03/12 10:53:06;;;;;;;11.52;8.05;;;;;;;;;;143741;574;46010;-67
2022/03/12 10:55:37;;;;;;;12.70;8.20;;;;;;;;;;143743;569;46022;-67
2022/03/12 10:58:15;;;;;;;11.48;8.57;;;;;;;;;;143742;605;46010;-67
2022/03/12 11:00:48;;;;;;;13.50;9.27;;;;;;;;;;143743;564;45923;-67
2022/03/12 11:03:20;;;;;;;13.43;8.57;;;;;;;;;;143742;622;46018;-67
2022/03/12 11:05:49;;;;;;;14.18;8.52;;;;;;;;;;143743;615;46022;-67
2022/03/12 11:08:25;;;;;;;11.50;7.93;;;;;;;;;;143744;595;46020;-68
2022/03/12 11:11:15;;;;;;;10.88;8.20;;;;;;;;;;143740;597;46923;-68
2022/03/12 11:13:48;;;;;;;13.32;8.13;;;;;;;;;;143740;658;46019;-68
2022/03/12 11:16:35;;;;;;;11.68;8.02;;;;;;;;;;143745;591;45022;-68
2022/03/12 11:19:08;;;;;;;11.55;8.38;;;;;;;;;;143742;582;46019;-67
2022/03/12 11:21:43;;;;;;;15.35;9.05;;;;;;;;;;143739;567;46023;-68
2022/03/12 11:24:24;;;;;;;13.65;8.32;;;;;;;;;;143742;564;46010;-68
2022/03/12 11:26:54;;;;;;;10.40;7.97;;;;;;;;;;143744;600;46022;-67
2022/03/12 11:29:24;;;;;;;11.20;8.32;;;;;;;;;;143742;569;46018;-67
2022/03/12 11:31:53;;;;;;;12.63;8.32;;;;;;;;;;143738;573;46922;-68
2022/03/12 11:34:41;;;;;;;12.40;8.07;;;;;;;;;;143741;614;46010;-68
2022/03/12 11:37:16;;;;;;;13.88;8.00;;;;;;;;;;143744;583;45024;-67
2022/03/12 11:39:45;;;;;;;;;;;;;;;;;;143746;981;46018;-66
2022/03/12 11:42:17;;;;;;;12.40;8.35;;;;;;;;;;143748;643;45937;-69
2022/03/12 11:44:56;;;;;;;13.43;8.70;;;;;;;;;;143744;739;45018;-67
2022/03/12 11:47:27;;;;;;;12.70;8.65;;;;;;;;;;143743;579;45022;-68
2022/03/12 11:49:57;;;;;;;15.45;9.88;;;;;;;;;;143741;571;46020;-68
2022/03/12 11:52:24;;;;;;;11.45;8.13;;;;;;;;;;143740;637;46022;-67
2022/03/12 11:54:55;;;;;;;11.48;8.35;;;;;;;;;;143742;584;46018;-67
2022/03/12 11:57:31;;;;;;;10.63;8.10;;;;;;;;;;143744;577;45023;-67
2022/03/12 11:59:59;;;;;;;9.73;7.43;;;;;;;;;;143743;668;46018;-66
2022/03/12 12:02:36;;;;;;;10.95;8.05;;;;;;;;;;143741;587;46923;-68
2022/03/12 12:05:12;;;;;;;12.45;8.32;;;;;;;;;;143742;589;46010;-67
2022/03/12 12:07:45;;;;;;;12.05;8.65;;;;;;;;;;143743;585;46022;-69
2022/03/12 12:10:17;;;;;;;13.85;8.00;;;;;;;;;;143738;566;47019;-67
2022/03/12 12:12:46;;;;;;;11.60;7.85;;;;;;;;;;143738;684;46023;-68
2022/03/12 12:15:16;;;;;;;10.32;7.95;;;;;;;;;;143740;613;46018;-67
2022/03/12 12:17:44;;;;;;;13.93;7.62;;;;;;;;;;143742;651;46022;-67
2022/03/12 12:20:15;;;;;;;14.57;8.23;;;;;;;;;;143741;604;46019;-67
2022/03/12 12:22:43;;;;;;;13.57;7.45;;;;;;;;;;143740;580;46922;-69
2022/03/12 12:25:11;;;;;;;11.25;7.78;;;;;;;;;;143742;646;45910;-67
2022/03/12 12:27:51;;;;;;;10.32;7.40;;;;;;;;;;143744;584;45023;-67
2022/03/12 12:30:43;;;;;;;12.63;7.82;;;;;;;;;;143742;582;46020;-68
2022/03/12 12:33:27;;;;;;;9.80;7.28;;;;;;;;;;143741;589;46022;-67
2022/03/12 12:36:13;;;;;;;9.48;7.12;;;;;;;;;;143743;564;45912;-69
2022/03/12 12:39:01;;;;;;;10.65;7.90;;;;;;;;;;143745;570;45024;-66
2022/03/12 12:41:52;;;;;;;11.00;7.50;;;;;;;;;;143742;576;46019;-67
2022/03/12 12:44:41;;;;;;;14.95;8.52;;;;;;;;;;143740;632;46022;-67
2022/03/12 12:47:15;;;;;;;11.88;7.75;;;;;;;;;;143741;593;46018;-68
2022/03/12 12:49:49;;;;;;;10.43;7.72;;;;;;;;;;143743;565;46023;-67
2022/03/12 12:52:17;;;;;;;11.02;7.37;;;;;;;;;;143740;629;46018;-67
2022/03/12 12:55:09;;;;;;;11.45;7.30;;;;;;;;;;143741;597;46010;-67
2022/03/12 12:57:42;;;;;;;12.52;8.23;;;;;;;;;;143741;609;46019;-68
2022/03/12 13:00:32;;;;;;;12.32;9.50;;;;;;;;;;143742;602;46022;-68
2022/03/12 13:03:01;;;;;;;10.85;7.78;;;;;;;;;;143743;574;46019;-67
2022/03/12 13:05:52;;;;;;;11.10;7.78;;;;;;;;;;143739;628;46023;-67
2022/03/12 13:08:25;;;;;;;11.52;7.57;;;;;;;;;;143741;593;45909;-67
2022/03/12 13:10:54;;;;;;;11.07;7.75;;;;;;;;;;143744;574;46022;-68
2022/03/12 13:13:26;;;;;;;11.20;7.60;;;;;;;;;;143739;604;46021;-67
2022/03/12 13:15:56;;;;;;;11.60;8.00;;;;;;;;;;143739;576;46920;-67
2022/03/12 13:18:43;;;;;;;10.80;7.15;;;;;;;;;;143741;571;46019;-67
2022/03/12 13:21:33;;;;;;;10.63;7.50;;;;;;;;;;143744;565;46010;-68
2022/03/12 13:24:00;;;;;;;11.30;7.70;;;;;;;;;;143741;631;46018;-67
2022/03/12 13:26:27;;;;;;;11.23;7.25;;;;;;;;;;143740;576;46023;-66
2022/03/12 13:28:56;;;;;;;9.75;7.80;;;;;;;;;;143741;588;46010;-68
2022/03/12 13:31:31;;;;;;;11.15;8.00;;;;;;;;;;143741;566;46022;-67
2022/03/12 13:34:16;;;;;;;11.98;7.90;;;;;;;;;;143742;698;46018;-66
2022/03/12 13:36:54;;;;;;;13.13;7.70;;;;;;;;;;143739;606;46022;-67
2022/03/12 13:39:23;;;;;;;10.77;7.25;;;;;;;;;;143739;702;46018;-68
2022/03/12 13:41:50;;;;;;;11.23;6.82;;;;;;;;;;143743;595;46023;-68
2022/03/12 13:44:19;;;;;;;10.45;7.30;;;;;;;;;;143742;587;46018;-67
2022/03/12 13:46:50;;;;;;;10.98;8.00;;;;;;;;;;143739;579;46011;-67
2022/03/12 13:49:20;;;;;;;11.73;6.97;;;;;;;;;;143740;570;46010;-66
2022/03/12 13:51:57;;;;;;;12.57;7.05;;;;;;;;;;143742;588;46018;-67
2022/03/12 13:54:25;;;;;;;10.10;6.78;;;;;;;;;;143742;615;46010;-68
2022/03/12 13:56:53;;;;;;;12.68;7.60;;;;;;;;;;143739;616;46023;-67
2022/03/12 13:59:27;;;;;;;10.23;7.35;;;;;;;;;;143743;579;45910;-67
2022/03/12 14:01:56;;;;;;;11.80;6.82;;;;;;;;;;143742;581;46022;-66
2022/03/12 14:04:25;;;;;;;10.07;7.62;;;;;;;;;;143737;570;46913;-66
2022/03/12 14:06:53;;;;;;;10.48;7.47;;;;;;;;;;143742;564;46010;-67
2022/03/12 14:09:21;;;;;;;8.10;6.65;;;;;;;;;;143740;621;46010;-67
2022/03/12 14:11:51;;;;;;;11.52;7.78;;;;;;;;;;143744;661;46023;-67
2022/03/12 14:14:23;;;;;;;9.82;7.20;;;;;;;;;;143739;583;46020;-67
2022/03/12 14:16:57;;;;;;;11.63;7.57;;;;;;;;;;143739;587;46022;-67
2022/03/12 14:19:25;;;;;;;12.02;6.93;;;;;;;;;;143742;609;46010;-67
2022/03/12 14:22:04;;;;;;;10.52;7.15;;;;;;;;;;143743;590;46022;-67
2022/03/12 14:24:40;;;;;;;11.32;7.90;;;;;;;;;;143742;577;46018;-67
2022/03/12 14:27:11;;;;;;;12.48;8.35;;;;;;;;;;143736;705;46921;-67
2022/03/12 14:29:43;;;;;;;13.43;7.20;;;;;;;;;;143737;684;46010;-68
2022/03/12 14:32:16;;;;;;;10.48;7.30;;;;;;;;;;143744;576;46022;-67
2022/03/12 14:34:45;;;;;;;10.73;6.93;;;;;;;;;;143742;579;46018;-67
2022/03/12 14:37:13;;;;;;;10.15;6.75;;;;;;;;;;143737;570;47010;-68
2022/03/12 14:39:42;;;;;;;9.25;6.75;;;;;;;;;;143741;576;46010;-66
2022/03/12 14:42:11;;;;;;;11.05;7.07;;;;;;;;;;143743;624;46022;-68
2022/03/12 14:44:43;;;;;;;9.98;7.40;;;;;;;;;;143742;583;46018;-66
2022/03/12 14:47:11;;;;;;;10.95;7.12;;;;;;;;;;143740;585;46023;-67